Time;durP1;ratioP1;P1;durP2;ratioP2;P2;SDS_P1;SDS_P2;PMS_P1;PMS_P2;Temp;Humidity;BMP_temperature;BMP_pressure;BME280_temperature;BME280_humidity;BME280_pressure;Samples;Min_cycle;Max_cycle;Signal;HPM_P1;HPM_P2
2021/05/19 00:01:46;;;;;;;;;;;;;;;9.20;92.14;98587.53;1774772;78;20176;-89
2021/05/19 00:04:14;;;;;;;;;;;;;;;9.22;91.39;98583.14;1721782;80;20172;-89
2021/05/19 00:06:40;;;;;;;;;;;;;;;9.19;91.78;98594.92;1729409;82;20183;-88
2021/05/19 00:09:09;;;;;;;;;;;;;;;9.20;90.65;98597.06;1731192;83;20238;-88
2021/05/19 00:11:37;;;;;;;;;;;;;;;9.16;90.66;98615.73;1742160;79;20180;-86
2021/05/19 00:14:04;;;;;;;;;;;;;;;9.15;90.13;98609.70;1756637;79;20218;-88
2021/05/19 00:16:31;;;;;;;;;;;;;;;9.16;91.43;98617.03;1784329;79;20247;-87
2021/05/19 00:18:57;;;;;;;;;;;;;;;9.16;89.91;98615.73;1784122;80;20182;-91
2021/05/19 00:21:23;;;;;;;;;;;;;;;9.14;90.37;98612.34;1776498;80;20552;-89
2021/05/19 00:23:50;;;;;;;;;;;;;;;9.11;91.37;98609.39;1787559;80;20199;-89
2021/05/19 00:26:17;;;;;;;;;;;;;;;9.10;89.81;98601.64;1769013;80;20189;-90
2021/05/19 00:28:45;;;;;;;;;;;;;;;9.07;90.16;98605.59;1769335;79;20179;-88
2021/05/19 00:31:12;;;;;;;;;;;;;;;9.03;89.19;98605.28;1770488;78;20171;-89
2021/05/19 00:33:38;;;;;;;;;;;;;;;8.98;90.55;98608.00;1716895;78;20192;-85
2021/05/19 00:36:04;;;;;;;;;;;;;;;8.93;89.85;98618.50;1704706;83;20176;-91
2021/05/19 00:38:31;;;;;;;;;;;;;;;8.91;90.11;98618.99;1746829;82;20231;-88
2021/05/19 00:40:58;;;;;;;;;;;;;;;8.90;90.12;98626.34;1696557;81;20382;-88
2021/05/19 00:43:25;;;;;;;;;;;;;;;8.84;92.28;98620.03;1718758;83;20175;-85
2021/05/19 00:45:52;;;;;;;;;;;;;;;8.84;92.62;98621.78;1717901;80;20156;-87
2021/05/19 00:48:18;;;;;;;;;;;;;;;8.82;92.77;98626.16;1746568;81;20186;-89
2021/05/19 00:50:44;;;;;;;;;;;;;;;8.82;92.36;98634.77;1770237;79;20213;-86
2021/05/19 00:53:11;;;;;;;;;;;;;;;8.80;92.40;98628.77;1794871;78;20163;-89
2021/05/19 00:55:37;;;;;;;;;;;;;;;8.77;92.37;98623.66;1798203;80;20206;-88
2021/05/19 00:58:04;;;;;;;;;;;;;;;8.75;92.19;98614.64;1799538;80;20195;-88
2021/05/19 01:00:33;;;;;;;;;;;;;;;8.68;93.15;98613.09;1773268;78;20236;-88
2021/05/19 01:03:01;;;;;;;;;;;;;;;8.67;92.90;98611.82;1744907;79;20246;-88
2021/05/19 01:05:37;;;;;;;;;;;;;;;8.61;93.88;98619.30;1702483;80;20230;-90
2021/05/19 01:10:50;;;;;;;;;;;;;;;8.57;93.62;98616.38;1714297;80;20186;-89
2021/05/19 01:13:17;;;;;;;;;;;;;;;8.53;93.84;98604.39;1737748;79;20175;-92
2021/05/19 01:15:43;;;;;;;;;;;;;;;8.48;94.17;98600.63;1722540;82;20188;-91
2021/05/19 01:18:10;;;;;;;;;;;;;;;8.47;93.42;98601.50;1757995;81;20200;-89
2021/05/19 01:20:37;;;;;;;;;;;;;;;8.37;94.86;98601.29;1741790;81;20209;-90
2021/05/19 01:23:05;;;;;;;;;;;;;;;8.27;95.41;98595.92;1705409;80;20200;-91
2021/05/19 01:25:33;;;;;;;;;;;;;;;8.31;94.28;98594.96;1729222;80;20553;-88
2021/05/19 01:28:01;;;;;;;;;;;;;;;8.30;93.59;98601.05;1797045;77;20205;-87
2021/05/19 01:30:29;;;;;;;;;;;;;;;8.27;93.39;98608.88;1758782;77;20253;-90
2021/05/19 01:32:55;;;;;;;;;;;;;;;8.22;93.85;98620.64;1780700;78;20169;-89
2021/05/19 01:35:22;;;;;;;;;;;;;;;8.19;93.94;98623.74;1741896;79;20187;-86
2021/05/19 01:37:49;;;;;;;;;;;;;;;8.17;93.52;98620.73;1720325;83;20175;-85
2021/05/19 01:40:18;;;;;;;;;;;;;;;8.17;93.42;98622.47;1743842;79;20249;-86
2021/05/19 01:42:46;;;;;;;;;;;;;;;8.18;93.21;98622.90;1742709;80;20215;-84
2021/05/19 01:45:17;;;;;;;;;;;;;;;8.21;93.88;98618.09;1730839;80;20254;-82
2021/05/19 01:47:48;;;;;;;;;;;;;;;8.17;95.42;98613.41;1733240;81;20199;-89
2021/05/19 01:50:23;;;;;;;;;;;;;;;8.13;95.58;98615.22;1793433;78;20841;-90
2021/05/19 01:52:53;;;;;;;;;;;;;;;8.13;95.71;98606.60;1777146;78;20168;-89
2021/05/19 01:55:23;;;;;;;;;;;;;;;8.12;95.57;98604.92;1793192;79;20210;-90
2021/05/19 01:57:52;;;;;;;;;;;;;;;8.14;94.80;98605.73;1781714;78;20178;-84
2021/05/19 02:00:28;;;;;;;;;;;;;;;8.13;95.52;98602.27;1781487;78;20161;-84
2021/05/19 02:03:07;;;;;;;;;;;;;;;8.15;95.70;98592.73;1718401;79;20153;-84
2021/05/19 02:05:44;;;;;;;;;;;;;;;8.15;96.13;98588.84;1771332;79;20197;-88
2021/05/19 02:08:10;;;;;;;;;;;;;;;8.18;95.36;98593.13;1707041;84;20212;-89
2021/05/19 02:10:38;;;;;;;;;;;;;;;8.17;95.86;98596.58;1705029;82;20093;-83
2021/05/19 02:13:10;;;;;;;;;;;;;;;8.17;95.13;98601.77;1722667;82;20103;-84
2021/05/19 02:15:38;;;;;;;;;;;;;;;8.17;95.37;98607.78;1725455;82;20107;-83
2021/05/19 02:18:05;;;;;;;;;;;;;;;8.17;94.82;98596.13;1713726;82;20213;-89
2021/05/19 02:20:33;;;;;;;;;;;;;;;8.16;94.33;98612.57;1687852;79;20194;-87
2021/05/19 02:23:00;;;;;;;;;;;;;;;8.15;94.65;98619.07;1707746;81;20195;-90
2021/05/19 02:25:27;;;;;;;;;;;;;;;8.16;93.96;98622.08;1736942;80;20231;-89
2021/05/19 02:27:54;;;;;;;;;;;;;;;8.13;94.24;98615.66;1774567;80;20184;-89
2021/05/19 02:30:23;;;;;;;;;;;;;;;8.12;94.76;98616.12;1740366;80;20259;-89
2021/05/19 02:32:50;;;;;;;;;;;;;;;8.13;93.98;98615.22;1725065;79;20204;-88
2021/05/19 02:35:18;;;;;;;;;;;;;;;8.11;94.98;98616.98;1754761;80;20165;-90
2021/05/19 02:37:46;;;;;;;;;;;;;;;8.08;95.12;98614.48;1706777;80;20180;-88
2021/05/19 02:40:15;;;;;;;;;;;;;;;8.08;94.59;98617.08;1688400;82;20203;-88
2021/05/19 02:42:42;;;;;;;;;;;;;;;8.05;94.93;98614.54;1714559;80;20511;-88
2021/05/19 02:45:10;;;;;;;;;;;;;;;8.04;94.58;98620.63;1689618;81;20172;-89
2021/05/19 02:47:37;;;;;;;;;;;;;;;8.02;95.06;98614.63;1676553;80;20174;-89
2021/05/19 02:50:04;;;;;;;;;;;;;;;8.02;95.21;98615.92;1672375;85;20241;-91
2021/05/19 02:52:31;;;;;;;;;;;;;;;8.02;95.11;98605.98;1690987;80;20630;-89
2021/05/19 02:54:57;;;;;;;;;;;;;;;8.02;94.63;98614.63;1693645;84;20204;-92
2021/05/19 02:57:23;;;;;;;;;;;;;;;8.02;95.41;98615.92;1689104;84;20986;-87
2021/05/19 02:59:50;;;;;;;;;;;;;;;8.05;95.80;98611.11;1709202;84;20202;-88
2021/05/19 03:02:16;;;;;;;;;;;;;;;8.06;95.46;98613.67;1701083;84;20342;-90
2021/05/19 03:04:42;;;;;;;;;;;;;;;8.08;93.81;98596.36;1710382;84;20192;-88
2021/05/19 03:07:09;;;;;;;;;;;;;;;8.09;94.98;98597.20;1739034;81;20182;-88
2021/05/19 03:09:35;;;;;;;;;;;;;;;8.11;94.66;98601.45;1738625;81;20172;-85
2021/05/19 03:12:01;;;;;;;;;;;;;;;8.12;93.75;98603.17;1746485;81;20199;-87
2021/05/19 03:14:27;;;;;;;;;;;;;;;8.11;94.37;98602.75;1759564;81;20185;-88
2021/05/19 03:16:54;;;;;;;;;;;;;;;8.09;94.54;98607.11;1767508;81;20582;-90
2021/05/19 03:19:20;;;;;;;;;;;;;;;8.11;93.35;98625.20;1772279;81;20188;-87
2021/05/19 03:21:46;;;;;;;;;;;;;;;8.10;92.92;98628.25;1756930;81;20185;-87
2021/05/19 03:24:12;;;;;;;;;;;;;;;8.09;93.49;98633.45;1771654;81;20186;-87
2021/05/19 03:26:38;;;;;;;;;;;;;;;8.11;93.77;98637.70;1767677;81;20351;-83
2021/05/19 03:29:05;;;;;;;;;;;;;;;8.10;94.45;98635.17;1719817;81;20179;-89
2021/05/19 03:31:31;;;;;;;;;;;;;;;8.14;93.46;98636.80;1698352;81;20234;-86
2021/05/19 03:33:57;;;;;;;;;;;;;;;8.17;93.29;98636.72;1740281;81;20556;-90
2021/05/19 03:36:23;;;;;;;;;;;;;;;8.22;93.40;98641.81;1749080;81;20211;-87
2021/05/19 03:38:49;;;;;;;;;;;;;;;8.25;93.19;98636.09;1743841;81;20182;-89
2021/05/19 03:41:15;;;;;;;;;;;;;;;8.29;93.39;98641.61;1749257;81;20204;-88
2021/05/19 03:43:42;;;;;;;;;;;;;;;8.29;93.69;98635.13;1740307;81;20195;-90
2021/05/19 03:46:08;;;;;;;;;;;;;;;8.33;93.05;98640.65;1750579;81;20186;-89
2021/05/19 03:48:34;;;;;;;;;;;;;;;8.38;93.05;98643.16;1751427;81;20168;-90
2021/05/19 03:51:01;;;;;;;;;;;;;;;8.41;92.64;98637.91;1761117;81;20188;-87
2021/05/19 03:53:27;;;;;;;;;;;;;;;8.44;93.16;98633.12;1774468;81;20152;-84
2021/05/19 03:55:54;;;;;;;;;;;;;;;8.48;92.76;98630.42;1769228;80;20226;-89
2021/05/19 03:58:20;;;;;;;;;;;;;;;8.52;92.72;98635.09;1769917;80;20148;-87
2021/05/19 04:00:47;;;;;;;;;;;;;;;8.56;91.78;98631.53;1764593;81;20546;-84
2021/05/19 04:03:13;;;;;;;;;;;;;;;8.55;93.29;98633.28;1744419;81;20262;-89
2021/05/19 04:05:40;;;;;;;;;;;;;;;8.62;92.71;98637.02;1757750;81;20246;-89
2021/05/19 04:08:07;;;;;;;;;;;;;;;8.68;91.79;98638.16;1777152;80;20143;-89
2021/05/19 04:10:48;;;;;;;;;;;;;;;8.72;92.27;98641.08;1782753;80;20175;-86
2021/05/19 04:13:24;;;;;;;;;;;;;;;8.75;92.38;98637.09;1786359;79;20167;-87
2021/05/19 04:15:50;;;;;;;;;;;;;;;8.79;92.50;98642.61;1782540;80;20171;-86
2021/05/19 04:18:17;;;;;;;;;;;;;;;8.84;92.77;98640.77;1780362;80;20341;-88
2021/05/19 04:20:43;;;;;;;;;;;;;;;8.91;92.34;98647.51;1781859;80;20209;-85
2021/05/19 04:23:09;;;;;;;;;;;;;;;9.00;92.32;98646.86;1787244;80;20185;-86
2021/05/19 04:25:36;;;;;;;;;;;;;;;9.09;91.78;98648.77;1788155;80;20660;-86
2021/05/19 04:28:03;;;;;;;;;;;;;;;9.19;92.01;98646.80;1794350;80;20168;-84
2021/05/19 04:30:29;;;;;;;;;;;;;;;9.30;91.48;98653.82;1791806;79;20206;-88
2021/05/19 04:32:56;;;;;;;;;;;;;;;9.43;91.25;98646.99;1771493;80;20194;-86
2021/05/19 04:35:22;;;;;;;;;;;;;;;9.55;91.17;98647.97;1763263;79;20212;-87
2021/05/19 04:37:48;;;;;;;;;;;;;;;9.69;90.58;98654.92;1779270;79;20171;-86
2021/05/19 04:40:15;;;;;;;;;;;;;;;9.79;90.27;98654.63;1772089;80;20209;-86
2021/05/19 04:42:41;;;;;;;;;;;;;;;9.91;89.97;98656.89;1798258;79;20198;-85
2021/05/19 04:45:08;;;;;;;;;;;;;;;10.03;89.34;98652.63;1774706;79;20197;-87
2021/05/19 04:47:34;;;;;;;;;;;;;;;10.14;89.23;98648.40;1776984;79;20230;-88
2021/05/19 04:50:01;;;;;;;;;;;;;;;10.24;88.48;98651.57;1774152;79;20516;-85
2021/05/19 04:52:27;;;;;;;;;;;;;;;10.37;88.35;98649.03;1737757;80;20332;-86
2021/05/19 04:54:53;;;;;;;;;;;;;;;10.51;87.84;98652.50;1722989;82;20183;-88
2021/05/19 04:57:19;;;;;;;;;;;;;;;10.68;87.44;98651.94;1717326;82;20944;-87
2021/05/19 04:59:45;;;;;;;;;;;;;;;10.84;86.96;98657.48;1722471;82;20211;-90
2021/05/19 05:02:11;;;;;;;;;;;;;;;11.04;86.79;98656.81;1728968;83;20196;-91
2021/05/19 05:04:38;;;;;;;;;;;;;;;11.19;85.80;98652.40;1724169;82;20184;-88
2021/05/19 05:07:04;;;;;;;;;;;;;;;11.39;85.73;98666.47;1723409;83;20247;-90
2021/05/19 05:09:30;;;;;;;;;;;;;;;11.53;84.85;98664.22;1739535;82;20166;-90
2021/05/19 05:11:57;;;;;;;;;;;;;;;11.66;84.60;98673.30;1726986;82;20510;-90
2021/05/19 05:14:23;;;;;;;;;;;;;;;11.78;83.29;98672.00;1712516;82;20226;-91
2021/05/19 05:16:49;;;;;;;;;;;;;;;11.91;83.52;98677.17;1746825;82;20254;-91
2021/05/19 05:19:15;;;;;;;;;;;;;;;11.95;81.93;98676.61;1727246;83;20222;-88
2021/05/19 05:21:42;;;;;;;;;;;;;;;12.03;82.33;98682.37;1725122;82;20514;-89
2021/05/19 05:24:09;;;;;;;;;;;;;;;12.04;81.47;98687.16;1723244;82;20207;-89
2021/05/19 05:26:37;;;;;;;;;;;;;;;12.15;82.33;98681.06;1736354;82;20209;-91
2021/05/19 05:29:11;;;;;;;;;;;;;;;12.07;82.06;98681.81;1711291;79;20558;-92
2021/05/19 05:31:37;;;;;;;;;;;;;;;12.16;82.23;98683.23;1707629;84;20181;-92
2021/05/19 05:34:03;;;;;;;;;;;;;;;12.18;82.13;98682.27;1707146;84;20216;-88
2021/05/19 05:36:30;;;;;;;;;;;;;;;12.06;80.96;98683.58;1709685;84;20228;-92
2021/05/19 05:38:56;;;;;;;;;;;;;;;12.11;81.43;98672.51;1693033;84;20503;-92
2021/05/19 05:41:23;;;;;;;;;;;;;;;12.24;81.47;98672.06;1699663;84;20192;-91
2021/05/19 05:43:49;;;;;;;;;;;;;;;12.07;80.88;98637.05;1703793;84;20196;-93
2021/05/19 05:46:15;;;;;;;;;;;;;;;12.41;80.51;98671.39;1696203;84;20158;-91
2021/05/19 05:48:42;;;;;;;;;;;;;;;12.50;81.14;98664.52;1701955;84;20220;-91
2021/05/19 05:51:08;;;;;;;;;;;;;;;12.64;80.84;98663.97;1657935;82;20194;-90
2021/05/19 05:53:35;;;;;;;;;;;;;;;12.78;80.03;98670.77;1699358;84;20168;-90
2021/05/19 05:56:01;;;;;;;;;;;;;;;12.88;80.03;98662.95;1695034;84;20164;-93
2021/05/19 05:58:27;;;;;;;;;;;;;;;13.01;78.87;98659.83;1701319;83;20183;-91
2021/05/19 06:00:53;;;;;;;;;;;;;;;13.13;78.88;98661.95;1681843;83;20238;-90
2021/05/19 06:03:20;;;;;;;;;;;;;;;13.32;77.42;98662.02;1697578;83;20199;-91
2021/05/19 06:05:46;;;;;;;;;;;;;;;13.53;78.43;98653.73;1701218;80;20197;-81
2021/05/19 06:08:12;;;;;;;;;;;;;;;13.75;75.38;98663.19;1698993;80;20184;-85
2021/05/19 06:10:38;;;;;;;;;;;;;;;13.88;74.74;98661.27;1699118;83;20138;-92
2021/05/19 06:13:04;;;;;;;;;;;;;;;14.00;74.91;98661.16;1691928;84;20170;-94
2021/05/19 06:15:31;;;;;;;;;;;;;;;14.10;74.54;98661.59;1698218;84;20236;-95
2021/05/19 06:17:57;;;;;;;;;;;;;;;14.15;72.67;98664.85;1700077;83;20204;-95
2021/05/19 06:20:24;;;;;;;;;;;;;;;14.16;72.70;98663.08;1699915;84;20165;-94
2021/05/19 06:22:52;;;;;;;;;;;;;;;14.34;71.85;98663.52;1706107;83;20255;-92
2021/05/19 06:25:18;;;;;;;;;;;;;;;14.47;73.70;98663.33;1718409;83;20177;-94
2021/05/19 06:27:44;;;;;;;;;;;;;;;14.51;72.55;98657.02;1720447;83;20163;-96
2021/05/19 06:30:40;;;;;;;;;;;;;;;14.60;73.18;98662.29;1675113;82;20265;-94
2021/05/19 06:33:06;;;;;;;;;;;;;;;14.71;73.11;98667.02;1664206;86;20219;-92
2021/05/19 06:35:32;;;;;;;;;;;;;;;14.86;73.12;98662.79;1696889;84;20526;-92
2021/05/19 06:37:59;;;;;;;;;;;;;;;15.02;73.34;98655.02;1704031;84;20196;-93
2021/05/19 06:40:25;;;;;;;;;;;;;;;15.11;71.46;98658.50;1710646;84;20150;-93
2021/05/19 06:45:35;;;;;;;;;;;;;;;15.36;72.37;98648.06;1605698;89;20180;-96
2021/05/19 06:48:24;;;;;;;;;;;;;;;15.45;69.68;98654.15;1753812;79;20153;-93
2021/05/19 06:50:50;;;;;;;;;;;;;;;15.49;69.13;98646.51;1785769;80;20222;-91
2021/05/19 06:53:17;;;;;;;;;;;;;;;15.55;68.97;98642.73;1763360;80;20187;-91
2021/05/19 06:55:50;;;;;;;;;;;;;;;15.47;66.78;98628.24;1772455;80;20161;-91
2021/05/19 07:07:00;;;;;;;;;;;;;;;15.86;67.06;98630.19;1690939;80;20245;-90
2021/05/19 07:09:26;;;;;;;;;;;;;;;16.03;66.27;98630.09;1713558;83;20185;-92
2021/05/19 07:11:53;;;;;;;;;;;;;;;15.99;64.33;98621.17;1706907;84;20166;-94
2021/05/19 07:14:21;;;;;;;;;;;;;;;16.03;62.26;98622.22;1710425;84;20187;-92
2021/05/19 07:17:07;;;;;;;;;;;;;;;16.20;64.02;98626.55;1581137;87;20246;31
2021/05/19 07:37:55;;;;;;;;;;;;;;;16.54;59.17;98594.95;1721283;80;20134;-88
2021/05/19 07:40:24;;;;;;;;;;;;;;;16.56;60.76;98586.05;1708307;83;20195;-92
2021/05/19 07:45:46;;;;;;;;;;;;;;;16.69;58.34;98590.11;1724786;80;20111;-86
2021/05/19 07:48:15;;;;;;;;;;;;;;;16.79;57.67;98589.11;1728698;83;20165;-85
2021/05/19 07:50:42;;;;;;;;;;;;;;;16.98;59.08;98579.72;1725252;83;20141;-87
2021/05/19 07:53:16;;;;;;;;;;;;;;;16.99;57.41;98591.45;1734336;81;20200;-87
2021/05/19 07:59:01;;;;;;;;;;;;;;;17.21;59.53;98576.56;1730344;80;20148;-88
2021/05/19 08:06:57;;;;;;;;;;;;;;;17.28;58.64;98584.43;1720378;79;20179;-86
2021/05/19 08:09:25;;;;;;;;;;;;;;;17.43;59.99;98585.77;1727084;80;20284;-88
2021/05/19 08:11:53;;;;;;;;;;;;;;;17.40;57.25;98585.47;1719428;84;20314;-87
2021/05/19 08:14:26;;;;;;;;;;;;;;;17.51;58.95;98588.77;1719563;82;20197;-88
2021/05/19 08:16:54;;;;;;;;;;;;;;;17.41;56.10;98588.48;1715243;83;20167;-87
2021/05/19 08:19:31;;;;;;;;;;;;;;;17.62;56.50;98590.72;1717684;79;20373;31
2021/05/19 08:22:02;;;;;;;;;;;;;;;17.73;57.05;98588.76;1683566;84;20204;-88
2021/05/19 08:24:36;;;;;;;;;;;;;;;17.84;57.84;98589.77;1717530;83;20176;-88
2021/05/19 08:30:16;;;;;;;;;;;;;;;17.85;56.60;98591.48;1706675;79;20203;31
2021/05/19 08:32:44;;;;;;;;;;;;;;;17.94;56.02;98592.67;1711698;82;20196;-87
2021/05/19 08:35:16;;;;;;;;;;;;;;;18.02;56.12;98590.39;1710894;84;20153;-86
2021/05/19 08:40:44;;;;;;;;;;;;;;;18.23;54.42;98586.03;1748860;79;20189;-84
2021/05/19 08:43:16;;;;;;;;;;;;;;;18.33;54.89;98584.49;1755409;80;20149;-87
2021/05/19 08:45:51;;;;;;;;;;;;;;;18.38;53.23;98589.00;1747686;78;20154;-88
2021/05/19 08:48:19;;;;;;;;;;;;;;;18.44;54.15;98581.15;1766155;78;20272;-87
2021/05/19 08:50:48;;;;;;;;;;;;;;;18.39;52.64;98588.03;1795656;80;20245;-86
2021/05/19 08:53:15;;;;;;;;;;;;;;;18.37;53.22;98594.36;1715989;83;20241;-87
2021/05/19 08:55:44;;;;;;;;;;;;;;;18.35;52.27;98585.23;1699495;82;20576;-86
2021/05/19 08:58:14;;;;;;;;;;;;;;;18.39;53.40;98587.20;1738908;82;20162;-86
2021/05/19 09:00:41;;;;;;;;;;;;;;;18.39;53.84;98548.56;1732836;82;20188;-86
2021/05/19 09:03:13;;;;;;;;;;;;;;;18.76;52.64;98577.72;1689826;80;20209;-84
2021/05/19 09:08:39;;;;;;;;;;;;;;;19.03;51.72;98571.55;1716405;80;20095;-89
2021/05/19 09:14:17;;;;;;;;;;;;;;;19.31;50.91;98569.66;1722226;80;20208;-87
2021/05/19 09:16:43;;;;;;;;;;;;;;;19.48;49.33;98566.22;1725050;80;20268;-87
2021/05/19 09:19:12;;;;;;;;;;;;;;;19.60;49.20;98574.23;1719993;83;20097;-88
2021/05/19 09:24:41;;;;;;;;;;;;;;;19.62;48.60;98569.69;1724252;80;20170;-86
2021/05/19 09:27:07;;;;;;;;;;;;;;;19.78;48.44;98561.56;1713423;83;20191;-87
2021/05/19 09:29:36;;;;;;;;;;;;;;;19.90;49.46;98565.95;1719006;83;20175;-87
2021/05/19 09:32:08;;;;;;;;;;;;;;;19.84;48.60;98557.16;1718496;83;20191;-84
2021/05/19 09:34:38;;;;;;;;;;;;;;;20.13;47.13;98562.11;1719264;83;20210;-86
2021/05/19 09:37:24;;;;;;;;;;;;;;;20.26;46.93;98565.06;1728891;83;20246;-85
2021/05/19 09:40:05;;;;;;;;;;;;;;;20.16;45.50;98565.38;1720117;83;20222;-86
2021/05/19 09:42:45;;;;;;;;;;;;;;;20.13;45.05;98554.20;1715882;83;20212;-85
2021/05/19 09:45:27;;;;;;;;;;;;;;;20.12;44.31;98560.45;1723269;83;20242;-88
2021/05/19 09:47:56;;;;;;;;;;;;;;;20.17;45.10;98551.21;1732294;83;20202;-86
2021/05/19 09:50:39;;;;;;;;;;;;;;;20.35;45.63;98549.50;1692350;83;20338;-86
2021/05/19 09:53:09;;;;;;;;;;;;;;;20.36;44.38;98546.75;1709351;82;20161;-87
2021/05/19 09:55:54;;;;;;;;;;;;;;;20.51;46.13;98540.80;1678171;83;20230;-86
2021/05/19 09:58:36;;;;;;;;;;;;;;;20.36;45.83;98534.88;1704460;83;20202;-86
2021/05/19 10:01:06;;;;;;;;;;;;;;;20.61;46.46;98530.42;1696791;83;20223;-87
2021/05/19 10:03:37;;;;;;;;;;;;;;;20.32;44.05;98499.59;1714902;83;20274;-88
2021/05/19 10:06:33;;;;;;;;;;;;;;;20.58;45.48;98529.31;1671174;85;20197;-86
2021/05/19 10:08:54;;;;;;;;;;;;;;;20.63;45.01;98528.05;1670890;84;20170;-87
2021/05/19 10:11:25;;;;;;;;;;;;;;;20.61;44.49;98525.14;1694595;82;20161;-88
2021/05/19 10:13:58;;;;;;;;;;;;;;;20.61;45.01;98516.77;1689704;85;20190;-87
2021/05/19 10:16:31;;;;;;;;;;;;;;;20.63;43.75;98512.20;1681401;85;20134;-88
2021/05/19 10:19:09;;;;;;;;;;;;;;;20.69;44.39;98522.78;1677034;85;20237;-87
2021/05/19 10:21:38;;;;;;;;;;;;;;;20.50;43.65;98503.48;1675605;85;20210;-87
2021/05/19 10:24:14;;;;;;;;;;;;;;;20.75;44.28;98521.00;1712257;81;20240;-88
2021/05/19 10:27:07;;;;;;;;;;;;;;;20.62;43.71;98518.91;1726988;83;20284;-87
2021/05/19 10:29:55;;;;;;;;;;;;;;;20.69;43.56;98517.50;1709354;80;20161;-87
2021/05/19 10:32:28;;;;;;;;;;;;;;;20.76;43.87;98502.85;1723044;83;20195;-87
2021/05/19 10:34:57;;;;;;;;;;;;;;;21.01;42.71;98509.74;1730569;82;20207;-87
2021/05/19 10:37:37;;;;;;;;;;;;;;;21.23;41.56;98509.40;1728603;83;20278;-87
2021/05/19 10:40:19;;;;;;;;;;;;;;;21.36;42.00;98507.94;1725579;83;20289;-86
2021/05/19 10:42:58;;;;;;;;;;;;;;;21.56;41.59;98505.91;1720023;83;20211;-86
2021/05/19 10:45:25;;;;;;;;;;;;;;;21.62;39.82;98496.64;1723326;83;20190;-87
2021/05/19 10:47:56;;;;;;;;;;;;;;;21.90;41.14;98489.95;1723610;83;20164;-88
2021/05/19 11:00:02;;;;;;;;;;;;;;;22.41;39.82;98490.63;1697465;80;20212;-86
2021/05/19 11:20:19;;;;;;;;;;;;;;;23.13;36.32;98477.05;1690213;82;20202;-88
2021/05/19 11:25:59;;;;;;;;;;;;;;;22.61;36.90;98469.09;1789982;78;21341;31
2021/05/19 11:31:22;;;;;;;;;;;;;;;22.44;37.58;98473.17;1794337;79;20104;-86
2021/05/19 11:34:04;;;;;;;;;;;;;;;22.08;36.31;98448.39;1755483;80;20166;-88
2021/05/19 11:36:41;;;;;;;;;;;;;;;22.36;37.77;98478.73;1776624;79;20130;-88
2021/05/19 11:39:52;;;;;;;;;;;;;;;22.40;37.23;98470.42;1787822;80;20268;-87
2021/05/19 11:42:30;;;;;;;;;;;;;;;22.67;35.58;98468.22;1738132;80;20106;-86
2021/05/19 11:45:00;;;;;;;;;;;;;;;22.61;34.71;98452.36;1770791;80;20229;-88
2021/05/19 11:47:38;;;;;;;;;;;;;;;22.42;34.70;98460.55;1770486;80;20204;-86
2021/05/19 11:50:19;;;;;;;;;;;;;;;22.75;35.58;98459.96;1787812;79;20149;-84
2021/05/19 11:53:00;;;;;;;;;;;;;;;22.95;34.69;98456.09;1783234;80;20187;-80
2021/05/19 11:55:45;;;;;;;;;;;;;;;23.18;35.94;98457.62;1785341;80;20167;-83
2021/05/19 11:58:32;;;;;;;;;;;;;;;23.37;36.05;98446.71;1731316;80;20120;-88
2021/05/19 12:01:06;;;;;;;;;;;;;;;23.57;35.75;98447.10;1778997;80;20265;-85
2021/05/19 12:03:36;;;;;;;;;;;;;;;23.82;34.10;98443.63;1779698;80;20208;-84
2021/05/19 12:06:04;;;;;;;;;;;;;;;24.00;34.74;98443.77;1750107;80;20151;-86
2021/05/19 12:08:37;;;;;;;;;;;;;;;24.21;33.64;98433.84;1767159;81;20201;-86
2021/05/19 12:11:16;;;;;;;;;;;;;;;24.52;32.37;98440.32;1783950;80;20258;-87
2021/05/19 12:13:48;;;;;;;;;;;;;;;24.88;32.23;98430.36;1779673;80;20200;-85
2021/05/19 12:16:18;;;;;;;;;;;;;;;24.94;32.16;98438.59;1773177;80;20220;-83
2021/05/19 12:19:12;;;;;;;;;;;;;;;24.88;32.07;98442.33;1776636;79;20178;-86
2021/05/19 12:21:45;;;;;;;;;;;;;;;24.69;31.27;98436.56;1773700;79;20119;-84
2021/05/19 12:27:00;;;;;;;;;;;;;;;24.60;32.48;98433.80;1624489;87;20196;-85
2021/05/19 12:29:54;;;;;;;;;;;;;;;24.59;31.23;98433.93;1607825;88;20237;-84
2021/05/19 12:32:29;;;;;;;;;;;;;;;25.06;31.57;98424.61;1600130;89;20162;-86
2021/05/19 12:35:12;;;;;;;;;;;;;;;25.47;31.14;98429.63;1585656;85;20141;-86
2021/05/19 12:38:06;;;;;;;;;;;;;;;25.98;30.70;98417.03;1734709;80;20127;-86
2021/05/19 12:40:36;;;;;;;;;;;;;;;26.06;29.92;98425.55;1762974;80;20202;-85
2021/05/19 12:43:05;;;;;;;;;;;;;;;26.07;31.04;98426.41;1770838;78;20126;-86
2021/05/19 12:45:36;;;;;;;;;;;;;;;24.97;30.77;98430.83;1775809;80;20150;-88
2021/05/19 12:48:10;;;;;;;;;;;;;;;24.85;31.79;98423.53;1785210;80;20255;-87
2021/05/19 12:50:47;;;;;;;;;;;;;;;24.11;32.12;98423.70;1786977;80;20207;-87
2021/05/19 12:53:35;;;;;;;;;;;;;;;23.66;33.21;98422.08;1759882;81;20148;-86
2021/05/19 12:56:19;;;;;;;;;;;;;;;23.30;33.94;98425.67;1762870;81;20224;-86
2021/05/19 12:59:02;;;;;;;;;;;;;;;23.16;34.48;98421.62;1748054;80;20285;-85
2021/05/19 13:01:30;;;;;;;;;;;;;;;22.69;35.01;98428.70;1768673;79;20197;-84
2021/05/19 13:04:02;;;;;;;;;;;;;;;22.35;35.29;98425.44;1785044;80;20198;-84
2021/05/19 13:06:26;;;;;;;;;;;;;;;22.15;35.42;98431.05;1777079;80;20144;-85
2021/05/19 13:09:01;;;;;;;;;;;;;;;21.94;36.04;98421.25;1757205;81;20256;-86
2021/05/19 13:11:31;;;;;;;;;;;;;;;22.04;36.19;98428.81;1769891;80;20147;-85
2021/05/19 13:13:58;;;;;;;;;;;;;;;22.08;36.74;98424.57;1758552;80;20173;-85
2021/05/19 13:16:30;;;;;;;;;;;;;;;22.07;36.71;98411.00;1768794;80;20196;-86
2021/05/19 13:19:06;;;;;;;;;;;;;;;22.20;36.91;98426.19;1757379;80;20214;-88
2021/05/19 13:24:14;;;;;;;;;;;;;;;21.98;37.08;98418.71;1769824;81;20192;-86
2021/05/19 13:26:47;;;;;;;;;;;;;;;21.73;38.01;98434.95;1772453;81;20203;-85
2021/05/19 13:29:16;;;;;;;;;;;;;;;21.67;37.39;98432.31;1770962;81;20179;-85
2021/05/19 13:32:07;;;;;;;;;;;;;;;21.36;37.23;98423.33;1717259;80;20809;-86
2021/05/19 13:34:45;;;;;;;;;;;;;;;21.03;37.94;98426.39;1784551;80;20269;-85
2021/05/19 13:37:03;;;;;;;;;;;;;;;21.08;38.69;98435.27;1775544;79;20164;-85
2021/05/19 13:39:31;;;;;;;;;;;;;;;21.03;39.01;98424.58;1756664;81;20258;-86
2021/05/19 13:42:01;;;;;;;;;;;;;;;20.83;40.47;98418.22;1775552;79;20148;-86
2021/05/19 13:44:31;;;;;;;;;;;;;;;20.88;40.67;98415.21;1788304;78;20223;-84
2021/05/19 13:47:00;;;;;;;;;;;;;;;20.94;41.45;98424.46;1739822;81;20229;-84
2021/05/19 13:49:32;;;;;;;;;;;;;;;20.82;42.57;98432.38;1777566;81;20262;-85
2021/05/19 13:52:04;;;;;;;;;;;;;;;20.68;42.92;98431.78;1780290;79;20215;-83
2021/05/19 13:54:33;;;;;;;;;;;;;;;20.52;43.48;98430.77;1772060;79;20189;-85
2021/05/19 13:56:59;;;;;;;;;;;;;;;20.39;44.00;98431.70;1780087;79;20206;-84
2021/05/19 13:59:25;;;;;;;;;;;;;;;20.38;43.37;98437.09;1776546;80;20664;-86
2021/05/19 14:01:52;;;;;;;;;;;;;;;20.17;45.55;98444.81;1766059;79;20210;-82
2021/05/19 14:04:19;;;;;;;;;;;;;;;19.95;43.86;98452.17;1779293;79;20183;-83
2021/05/19 14:06:45;;;;;;;;;;;;;;;19.94;43.35;98450.51;1771183;80;20187;-81
2021/05/19 14:09:12;;;;;;;;;;;;;;;20.00;43.73;98458.80;1778482;79;20183;-84
2021/05/19 14:11:50;;;;;;;;;;;;;;;20.13;42.91;98460.52;1767523;80;20236;-80
2021/05/19 14:14:17;;;;;;;;;;;;;;;20.20;42.46;98457.80;1766529;80;20175;-80
2021/05/19 14:27:26;;;;;;;;;;;;;;;20.90;41.13;98463.97;1766765;80;20185;-81
2021/05/19 14:29:54;;;;;;;;;;;;;;;21.22;40.67;98456.98;1755845;80;20199;-83
2021/05/19 14:32:21;;;;;;;;;;;;;;;21.44;42.02;98446.89;1743034;80;20215;-80
2021/05/19 14:34:51;;;;;;;;;;;;;;;21.86;39.03;98442.22;1763800;80;21001;-80
2021/05/19 15:01:40;;;;;;;;;;;;;;;19.87;46.15;98451.41;1756702;81;20189;-84
2021/05/19 15:04:06;;;;;;;;;;;;;;;19.70;46.47;98432.02;1777149;80;20166;-84
2021/05/19 15:06:33;;;;;;;;;;;;;;;19.74;46.70;98451.48;1763452;80;21075;-84
2021/05/19 15:08:59;;;;;;;;;;;;;;;19.83;46.46;98453.43;1772944;81;20228;-82
2021/05/19 15:11:26;;;;;;;;;;;;;;;19.79;46.38;98461.69;1766900;80;20321;-86
2021/05/19 15:13:53;;;;;;;;;;;;;;;19.69;46.84;98461.48;1773802;81;20176;-83
2021/05/19 15:16:19;;;;;;;;;;;;;;;19.60;47.03;98444.55;1758735;81;20220;-83
2021/05/19 15:18:46;;;;;;;;;;;;;;;19.82;47.28;98461.48;1748674;80;20212;-83